createdAt,value
2022-08-05T00:01:36.425Z,96745.00
2022-08-05T00:04:18.899Z,96749.00
2022-08-05T00:06:47.041Z,96751.00
2022-08-05T00:09:15.799Z,96750.00
2022-08-05T00:11:48.247Z,96749.00
2022-08-05T00:14:17.425Z,96745.00
2022-08-05T00:16:53.216Z,96751.00
2022-08-05T00:19:25.055Z,96749.00
2022-08-05T00:22:00.217Z,96752.00
2022-08-05T00:24:31.224Z,96745.00
2022-08-05T00:26:59.378Z,96755.00
2022-08-05T00:29:27.597Z,96757.00
2022-08-05T00:32:13.108Z,96758.00
2022-08-05T00:35:05.391Z,96753.00
2022-08-05T00:37:50.283Z,96742.00
2022-08-05T00:40:26.755Z,96744.00
2022-08-05T00:42:56.838Z,96745.00
2022-08-05T00:45:28.101Z,96739.00
2022-08-05T00:48:13.044Z,96736.00
2022-08-05T00:50:41.254Z,96745.00
2022-08-05T00:53:09.903Z,96735.00
2022-08-05T00:55:56.489Z,96731.00
2022-08-05T00:58:27.472Z,96734.00
2022-08-05T01:00:54.934Z,96733.00
2022-08-05T01:03:35.930Z,96735.00
2022-08-05T01:06:15.344Z,96732.00
2022-08-05T01:09:09.072Z,96733.00
2022-08-05T01:11:44.947Z,96730.00
2022-08-05T01:14:15.261Z,96739.00
2022-08-05T01:17:01.709Z,96753.00
2022-08-05T01:20:02.479Z,96748.00
2022-08-05T01:22:28.071Z,96753.00
2022-08-05T01:25:14.197Z,96764.00
2022-08-05T01:28:00.594Z,96772.00
2022-08-05T01:30:34.058Z,96771.00
2022-08-05T01:33:08.048Z,96765.00
2022-08-05T01:35:51.989Z,96767.00
2022-08-05T01:38:41.153Z,96765.00
2022-08-05T01:41:08.294Z,96763.00
2022-08-05T01:43:56.669Z,96767.00
2022-08-05T01:46:42.529Z,96756.00
2022-08-05T01:49:23.789Z,96759.00
2022-08-05T01:51:52.553Z,96758.00
2022-08-05T01:54:19.708Z,96766.00
2022-08-05T01:58:10.549Z,96771.00
2022-08-05T01:59:40.017Z,96772.00
2022-08-05T02:02:10.609Z,96783.00
2022-08-05T02:05:14.146Z,96792.00
2022-08-05T02:07:57.841Z,96793.00
2022-08-05T02:10:30.498Z,96794.00
2022-08-05T02:13:17.638Z,96791.00
2022-08-05T02:16:03.850Z,96786.00
2022-08-05T02:18:44.634Z,96793.00
2022-08-05T02:21:18.833Z,96792.00
2022-08-05T02:23:54.286Z,96783.00
2022-08-05T02:26:26.549Z,96782.00
2022-08-05T02:28:55.568Z,96775.00
2022-08-05T02:31:37.794Z,96775.00
2022-08-05T02:34:06.255Z,96773.00
2022-08-05T02:36:58.594Z,96777.00
2022-08-05T02:39:25.779Z,96780.00
2022-08-05T02:42:00.953Z,96775.00
2022-08-05T02:44:28.839Z,96774.00
2022-08-05T02:47:00.099Z,96777.00
2022-08-05T02:49:35.824Z,96771.00
2022-08-05T02:52:11.761Z,96761.00
2022-08-05T02:54:53.590Z,96758.00
2022-08-05T02:58:10.258Z,96757.00
2022-08-05T03:00:09.006Z,96751.00
2022-08-05T03:02:37.356Z,96752.00
2022-08-05T03:05:05.335Z,96743.00
2022-08-05T03:08:00.647Z,96749.00
2022-08-05T03:10:22.062Z,96740.00
2022-08-05T03:12:52.567Z,96735.00
2022-08-05T03:15:20.109Z,96733.00
2022-08-05T03:17:47.318Z,96758.00
2022-08-05T03:20:14.477Z,96751.00
2022-08-05T03:22:44.052Z,96747.00
2022-08-05T03:25:33.308Z,96748.00
2022-08-05T03:28:01.677Z,96750.00
2022-08-05T03:30:33.530Z,96756.00
2022-08-05T03:33:01.531Z,96759.00
2022-08-05T03:35:28.967Z,96758.00
2022-08-05T03:37:56.757Z,96755.00
2022-08-05T03:40:32.127Z,96751.00
2022-08-05T03:43:01.449Z,96742.00
2022-08-05T03:45:57.315Z,96755.00
2022-08-05T03:48:26.571Z,96754.00
2022-08-05T03:52:39.253Z,96761.00
2022-08-05T03:55:51.580Z,96763.00
2022-08-05T03:56:55.777Z,96765.00
2022-08-05T03:59:47.120Z,96775.00
2022-08-05T04:02:38.456Z,96784.00
2022-08-05T04:05:09.646Z,96789.00
2022-08-05T04:07:57.903Z,96792.00
2022-08-05T04:10:32.088Z,96796.00
2022-08-05T04:13:00.677Z,96816.00
2022-08-05T04:15:32.816Z,96818.00
2022-08-05T04:18:01.984Z,96840.00
2022-08-05T04:20:29.433Z,96874.00
2022-08-05T04:22:58.957Z,96883.00
2022-08-05T04:25:49.425Z,96892.00
2022-08-05T04:28:13.397Z,96898.00
2022-08-05T04:30:40.604Z,96893.00
2022-08-05T04:33:10.086Z,96896.00
2022-08-05T04:36:09.486Z,96889.00
2022-08-05T04:38:39.561Z,96888.00
2022-08-05T04:41:09.631Z,96885.00
2022-08-05T04:43:37.728Z,96884.00
2022-08-05T04:46:07.788Z,96889.00
2022-08-05T04:48:36.111Z,96903.00
2022-08-05T04:51:11.355Z,96919.00
2022-08-05T04:53:39.390Z,96924.00
2022-08-05T04:56:32.307Z,96938.00
2022-08-05T04:58:54.718Z,96945.00
2022-08-05T05:02:05.792Z,96929.00
2022-08-05T05:04:09.437Z,96927.00
2022-08-05T05:06:44.508Z,96937.00
2022-08-05T05:09:14.255Z,96948.00
2022-08-05T05:11:54.025Z,96959.00
2022-08-05T05:14:27.995Z,96953.00
2022-08-05T05:16:59.910Z,96948.00
2022-08-05T05:19:36.169Z,96959.00
2022-08-05T05:22:23.669Z,96965.00
2022-08-05T05:24:57.373Z,96962.00
2022-08-05T05:27:44.375Z,96957.00
2022-08-05T05:30:15.579Z,96953.00
2022-08-05T05:32:56.301Z,96956.00
2022-08-05T05:35:23.602Z,96950.00
2022-08-05T05:37:59.528Z,96958.00
2022-08-05T05:40:28.103Z,96961.00
2022-08-05T05:42:56.374Z,96947.00
2022-08-05T05:45:24.720Z,96948.00
2022-08-05T05:48:06.113Z,96951.00
2022-08-05T05:50:44.014Z,96958.00
2022-08-05T05:53:21.526Z,96956.00
2022-08-05T05:55:51.374Z,96961.00
2022-08-05T05:58:30.402Z,96969.00
2022-08-05T06:01:12.079Z,96962.00
2022-08-05T06:04:00.948Z,96975.00
2022-08-05T06:06:27.819Z,96985.00
2022-08-05T06:08:58.670Z,96974.00
2022-08-05T06:11:26.104Z,96969.00
2022-08-05T06:13:56.082Z,96970.00
2022-08-05T06:16:30.075Z,96958.00
2022-08-05T06:19:01.856Z,96964.00
2022-08-05T06:21:37.603Z,96969.00
2022-08-05T06:24:07.745Z,96983.00
2022-08-05T06:26:38.994Z,96979.00
2022-08-05T06:29:23.789Z,96989.00
2022-08-05T06:31:53.387Z,96988.00
2022-08-05T06:34:20.564Z,96996.00
2022-08-05T06:36:56.710Z,96991.00
2022-08-05T06:39:27.160Z,97005.00
2022-08-05T06:41:59.046Z,97005.00
2022-08-05T06:44:26.609Z,97018.00
2022-08-05T06:46:54.473Z,97018.00
2022-08-05T06:49:59.854Z,97019.00
2022-08-05T06:52:37.135Z,97016.00
2022-08-05T06:54:56.110Z,97016.00
2022-08-05T06:57:58.199Z,97020.00
2022-08-05T07:00:10.743Z,97017.00
2022-08-05T07:02:43.003Z,97030.00
2022-08-05T07:05:14.394Z,97039.00
2022-08-05T07:07:48.925Z,97032.00
2022-08-05T07:10:16.456Z,97027.00
2022-08-05T07:13:03.117Z,97025.00
2022-08-05T07:16:00.782Z,97021.00
2022-08-05T07:18:30.414Z,97018.00
2022-08-05T07:20:57.983Z,97026.00
2022-08-05T07:23:31.981Z,97031.00
2022-08-05T07:25:59.144Z,97033.00
2022-08-05T07:28:26.561Z,97044.00
2022-08-05T07:30:55.051Z,97034.00
2022-08-05T07:33:36.501Z,97039.00
2022-08-05T07:36:20.810Z,97036.00
2022-08-05T07:38:49.158Z,97018.00
2022-08-05T07:42:14.318Z,97020.00
2022-08-05T07:44:14.245Z,97021.00
2022-08-05T07:46:48.390Z,97013.00
2022-08-05T07:49:16.682Z,97014.00
2022-08-05T07:51:52.943Z,97018.00
2022-08-05T07:54:26.752Z,97010.00
2022-08-05T07:57:01.581Z,97008.00
2022-08-05T07:59:42.188Z,97000.00
2022-08-05T08:02:16.513Z,96987.00
2022-08-05T08:04:45.562Z,96984.00
2022-08-05T08:07:13.336Z,96977.00
2022-08-05T08:09:40.471Z,96970.00
2022-08-05T08:12:35.549Z,96979.00
2022-08-05T08:14:54.894Z,96981.00
2022-08-05T08:17:22.256Z,96981.00
2022-08-05T08:20:22.956Z,96984.00
2022-08-05T08:22:37.818Z,96983.00
2022-08-05T08:25:15.753Z,96973.00
2022-08-05T08:27:47.567Z,96962.00
2022-08-05T08:30:29.382Z,96963.00
2022-08-05T08:32:57.525Z,96967.00
2022-08-05T08:35:26.617Z,96967.00
2022-08-05T08:37:56.321Z,96968.00
2022-08-05T08:40:23.792Z,96964.00
2022-08-05T08:42:52.704Z,96970.00
2022-08-05T08:45:27.019Z,96960.00
2022-08-05T08:48:07.484Z,96962.00
2022-08-05T08:51:03.373Z,96963.00
2022-08-05T08:53:35.603Z,96949.00
2022-08-05T08:56:06.007Z,96951.00
2022-08-05T08:58:36.875Z,96945.00
2022-08-05T09:01:06.182Z,96956.00
2022-08-05T09:03:44.994Z,96956.00
2022-08-05T09:06:15.815Z,96950.00
2022-08-05T09:08:45.734Z,96947.00
2022-08-05T09:11:13.924Z,96943.00
2022-08-05T09:13:41.568Z,96937.00
2022-08-05T09:16:28.704Z,96940.00
2022-08-05T09:18:56.559Z,96938.00
2022-08-05T09:22:22.028Z,96943.00
2022-08-05T09:24:15.660Z,96940.00
2022-08-05T09:26:46.223Z,96941.00
2022-08-05T09:29:18.769Z,96931.00
2022-08-05T09:32:45.803Z,96937.00
2022-08-05T09:34:55.056Z,96937.00
2022-08-05T09:38:17.763Z,96944.00
2022-08-05T09:40:28.879Z,96949.00
2022-08-05T09:42:56.088Z,96949.00
2022-08-05T09:46:06.908Z,96942.00
2022-08-05T09:48:21.810Z,96939.00
2022-08-05T09:50:55.401Z,96939.00
2022-08-05T09:53:54.085Z,96936.00
2022-08-05T09:56:12.962Z,96942.00
2022-08-05T09:58:42.018Z,96939.00
2022-08-05T10:01:15.151Z,96932.00
2022-08-05T10:04:00.221Z,96936.00
2022-08-05T10:06:28.193Z,96929.00
2022-08-05T10:08:56.107Z,96926.00
2022-08-05T10:11:23.980Z,96920.00
2022-08-05T10:13:58.542Z,96913.00
2022-08-05T10:16:37.921Z,96928.00
2022-08-05T10:19:23.770Z,96920.00
2022-08-05T10:22:08.952Z,96924.00
2022-08-05T10:24:39.666Z,96918.00
2022-08-05T10:27:07.602Z,96916.00
2022-08-05T10:30:41.423Z,96902.00
2022-08-05T10:32:52.207Z,96908.00
2022-08-05T10:35:11.292Z,96907.00
2022-08-05T10:37:44.975Z,96908.00
2022-08-05T10:40:31.150Z,96911.00
2022-08-05T10:43:09.762Z,96904.00
2022-08-05T10:45:41.788Z,96900.00
2022-08-05T10:48:31.949Z,96905.00
2022-08-05T10:51:04.019Z,96906.00
2022-08-05T10:53:42.672Z,96903.00
2022-08-05T10:56:21.333Z,96903.00
2022-08-05T10:58:52.881Z,96899.00
2022-08-05T11:02:03.791Z,96889.00
2022-08-05T11:04:26.214Z,96883.00
2022-08-05T11:07:06.678Z,96880.00
2022-08-05T11:09:46.450Z,96882.00
2022-08-05T11:12:26.516Z,96883.00
2022-08-05T11:15:20.490Z,96889.00
2022-08-05T11:17:59.417Z,96881.00
2022-08-05T11:20:34.457Z,96882.00
2022-08-05T11:23:10.529Z,96878.00
2022-08-05T11:26:05.896Z,96886.00
2022-08-05T11:28:25.873Z,96880.00
2022-08-05T11:30:58.269Z,96887.00
2022-08-05T11:33:43.808Z,96884.00
2022-08-05T11:36:15.006Z,96881.00
2022-08-05T11:38:45.442Z,96896.00
2022-08-05T11:41:54.827Z,96887.00
2022-08-05T11:44:08.286Z,96883.00
2022-08-05T11:46:36.826Z,96883.00
2022-08-05T11:49:05.921Z,96884.00
2022-08-05T11:51:44.845Z,96884.00
2022-08-05T11:54:24.497Z,96881.00
2022-08-05T11:57:02.196Z,96889.00
2022-08-05T11:59:49.782Z,96887.00
2022-08-05T12:02:30.717Z,96881.00
2022-08-05T12:05:00.732Z,96886.00
2022-08-05T12:08:04.395Z,96887.00
2022-08-05T12:10:20.743Z,96882.00
2022-08-05T12:12:59.388Z,96886.00
2022-08-05T12:15:35.949Z,96884.00
2022-08-05T12:18:10.822Z,96899.00
2022-08-05T12:20:38.906Z,96893.00
2022-08-05T12:23:09.917Z,96890.00
2022-08-05T12:25:53.584Z,96892.00
2022-08-05T12:28:33.601Z,96881.00
2022-08-05T12:31:02.311Z,96895.00
2022-08-05T12:33:35.996Z,96893.00
2022-08-05T12:36:04.325Z,96891.00
2022-08-05T12:38:39.642Z,96890.00
2022-08-05T12:41:12.983Z,96897.00
2022-08-05T12:43:50.428Z,96902.00
2022-08-05T12:46:26.164Z,96891.00
2022-08-05T12:48:57.454Z,96892.00
2022-08-05T12:52:14.331Z,96892.00
2022-08-05T12:54:16.984Z,96891.00
2022-08-05T12:56:51.924Z,96890.00
2022-08-05T12:59:27.539Z,96890.00
2022-08-05T13:02:15.849Z,96896.00
2022-08-05T13:04:54.383Z,96893.00
2022-08-05T13:07:56.102Z,96894.00
2022-08-05T13:10:10.767Z,96900.00
2022-08-05T13:12:50.682Z,96885.00
2022-08-05T13:15:35.845Z,96892.00
2022-08-05T13:18:08.993Z,96895.00
2022-08-05T13:20:40.352Z,96893.00
2022-08-05T13:23:08.448Z,96898.00
2022-08-05T13:25:52.080Z,96894.00
2022-08-05T13:28:22.871Z,96890.00
2022-08-05T13:30:51.203Z,96883.00
2022-08-05T13:34:23.399Z,96883.00
2022-08-05T13:36:15.098Z,96891.00
2022-08-05T13:38:43.200Z,96893.00
2022-08-05T13:41:11.330Z,96891.00
2022-08-05T13:43:45.341Z,96886.00
2022-08-05T13:49:16.459Z,96883.00
2022-08-05T13:55:09.772Z,96889.00
2022-08-05T13:58:30.601Z,96886.00
2022-08-05T14:01:02.129Z,96874.00
2022-08-05T14:04:11.053Z,96881.00
2022-08-05T14:07:24.942Z,96872.00
2022-08-05T14:10:08.448Z,96874.00
2022-08-05T14:16:16.848Z,96877.00
2022-08-05T14:19:26.323Z,96886.00
2022-08-05T14:22:10.025Z,96877.00
2022-08-05T14:24:39.883Z,96881.00
2022-08-05T14:27:17.617Z,96882.00
2022-08-05T14:29:45.622Z,96880.00
2022-08-05T14:32:26.873Z,96873.00
2022-08-05T14:34:56.691Z,96874.00
2022-08-05T14:40:43.718Z,96877.00
2022-08-05T14:43:53.805Z,96884.00
2022-08-05T14:46:44.919Z,96889.00
2022-08-05T14:49:12.382Z,96885.00
2022-08-05T14:51:42.454Z,96885.00
2022-08-05T14:57:34.047Z,96895.00
2022-08-05T15:02:58.507Z,96905.00
2022-08-05T15:05:29.960Z,96895.00
2022-08-05T15:08:05.485Z,96907.00
2022-08-05T15:10:41.441Z,96912.00
2022-08-05T15:13:09.073Z,96906.00
2022-08-05T15:15:55.747Z,96908.00
2022-08-05T15:18:24.992Z,96911.00
2022-08-05T15:20:52.150Z,96911.00
2022-08-05T15:23:19.331Z,96929.00
2022-08-05T15:25:53.344Z,96912.00
2022-08-05T15:28:27.793Z,96919.00
2022-08-05T15:30:55.306Z,96928.00
2022-08-05T15:34:05.867Z,96923.00
2022-08-05T15:36:17.557Z,96927.00
2022-08-05T15:41:00.646Z,96928.00
2022-08-05T15:41:57.651Z,96945.00
2022-08-05T15:44:26.550Z,96946.00
2022-08-05T15:46:55.653Z,96945.00
2022-08-05T15:49:40.829Z,96953.00
2022-08-05T15:52:16.554Z,96954.00
2022-08-05T15:54:56.130Z,96953.00
2022-08-05T15:57:24.054Z,96961.00
2022-08-05T15:59:56.494Z,96958.00
2022-08-05T16:02:25.432Z,96951.00
2022-08-05T16:04:53.369Z,96958.00
2022-08-05T16:07:21.463Z,96965.00
2022-08-05T16:09:50.131Z,96969.00
2022-08-05T16:12:17.531Z,96983.00
2022-08-05T16:14:47.180Z,96985.00
2022-08-05T16:17:14.342Z,96983.00
2022-08-05T16:20:03.325Z,96991.00
2022-08-05T16:22:34.468Z,96990.00
2022-08-05T16:25:07.911Z,96989.00
2022-08-05T16:28:00.987Z,96991.00
2022-08-05T16:30:26.188Z,96996.00
2022-08-05T16:32:54.096Z,96991.00
2022-08-05T16:35:28.657Z,96996.00
2022-08-05T16:38:15.212Z,96997.00
2022-08-05T16:40:52.285Z,96997.00
2022-08-05T16:43:23.688Z,96987.00
2022-08-05T16:46:05.192Z,96992.00
2022-08-05T16:48:36.217Z,97000.00
2022-08-05T16:51:08.744Z,96991.00
2022-08-05T16:54:02.393Z,96988.00
2022-08-05T16:56:24.193Z,96989.00
2022-08-05T16:58:51.396Z,97003.00
2022-08-05T17:01:19.140Z,97014.00
2022-08-05T17:03:46.682Z,97008.00
2022-08-05T17:06:16.416Z,97017.00
2022-08-05T17:08:52.960Z,97011.00
2022-08-05T17:11:23.919Z,97019.00
2022-08-05T17:13:54.697Z,97019.00
2022-08-05T17:16:36.553Z,97022.00
2022-08-05T17:19:07.452Z,97031.00
2022-08-05T17:21:37.569Z,97027.00
2022-08-05T17:24:28.183Z,97029.00
2022-08-05T17:26:56.547Z,97016.00
2022-08-05T17:29:33.375Z,97025.00
2022-08-05T17:32:11.521Z,97026.00
2022-08-05T17:34:43.709Z,97031.00
2022-08-05T17:37:39.396Z,97036.00
2022-08-05T17:40:00.110Z,97036.00
2022-08-05T17:42:32.260Z,97036.00
2022-08-05T17:45:17.803Z,97036.00
2022-08-05T17:47:53.219Z,97038.00
2022-08-05T17:50:28.571Z,97039.00
2022-08-05T17:53:00.570Z,97026.00
2022-08-05T17:55:37.911Z,97038.00
2022-08-05T17:58:09.370Z,97036.00
2022-08-05T18:00:40.825Z,97040.00
2022-08-05T18:03:39.292Z,97040.00
2022-08-05T18:06:06.108Z,97038.00
2022-08-05T18:08:40.548Z,97055.00
2022-08-05T18:11:23.637Z,97055.00
2022-08-05T18:13:56.907Z,97062.00
2022-08-05T18:16:26.717Z,97067.00
2022-08-05T18:18:53.872Z,97076.00
2022-08-05T18:21:22.893Z,97080.00
2022-08-05T18:23:53.643Z,97086.00
2022-08-05T18:26:27.634Z,97101.00
2022-08-05T18:28:57.083Z,97095.00
2022-08-05T18:31:24.341Z,97101.00
2022-08-05T18:33:52.310Z,97104.00
2022-08-05T18:36:19.551Z,97117.00
2022-08-05T18:38:46.735Z,97128.00
2022-08-05T18:41:53.540Z,97145.00
2022-08-05T18:44:06.287Z,97141.00
2022-08-05T18:46:34.941Z,97152.00
2022-08-05T18:49:23.352Z,97163.00
2022-08-05T18:52:16.482Z,97170.00
2022-08-05T18:54:45.639Z,97178.00
2022-08-05T18:57:15.481Z,97168.00
2022-08-05T19:00:01.442Z,97168.00
2022-08-05T19:02:29.569Z,97168.00
2022-08-05T19:05:02.073Z,97170.00
2022-08-05T19:07:46.649Z,97179.00
2022-08-05T19:10:14.478Z,97182.00
2022-08-05T19:12:43.306Z,97183.00
2022-08-05T19:15:54.707Z,97205.00
2022-08-05T19:18:10.304Z,97201.00
2022-08-05T19:20:46.586Z,97198.00
2022-08-05T19:24:03.725Z,97195.00
2022-08-05T19:26:02.982Z,97199.00
2022-08-05T19:28:30.875Z,97187.00
2022-08-05T19:30:58.062Z,97187.00
2022-08-05T19:33:35.903Z,97191.00
2022-08-05T19:36:05.940Z,97192.00
2022-08-05T19:38:35.609Z,97203.00
2022-08-05T19:41:07.199Z,97215.00
2022-08-05T19:44:05.777Z,97212.00
2022-08-05T19:46:29.763Z,97219.00
2022-08-05T19:49:03.495Z,97222.00
2022-08-05T19:52:04.459Z,97226.00
2022-08-05T19:54:29.418Z,97228.00
2022-08-05T19:56:59.222Z,97227.00
2022-08-05T19:59:59.467Z,97224.00
2022-08-05T20:02:14.771Z,97241.00
2022-08-05T20:04:45.806Z,97231.00
2022-08-05T20:07:13.866Z,97246.00
2022-08-05T20:09:54.697Z,97257.00
2022-08-05T20:12:24.576Z,97259.00
2022-08-05T20:14:53.007Z,97264.00
2022-08-05T20:17:23.241Z,97274.00
2022-08-05T20:19:50.898Z,97276.00
2022-08-05T20:22:25.063Z,97272.00
2022-08-05T20:24:54.510Z,97283.00
2022-08-05T20:27:26.826Z,97293.00
2022-08-05T20:29:58.326Z,97294.00
2022-08-05T20:32:26.800Z,97298.00
2022-08-05T20:34:54.529Z,97301.00
2022-08-05T20:38:06.705Z,97300.00
2022-08-05T20:40:09.280Z,97306.00
2022-08-05T20:42:36.580Z,97309.00
2022-08-05T20:45:04.592Z,97304.00
2022-08-05T20:47:32.851Z,97305.00
2022-08-05T20:50:02.157Z,97301.00
2022-08-05T20:52:29.918Z,97312.00
2022-08-05T20:55:23.520Z,97321.00
2022-08-05T20:57:45.101Z,97323.00
2022-08-05T21:00:34.968Z,97312.00
2022-08-05T21:03:06.874Z,97317.00
2022-08-05T21:05:48.116Z,97321.00
2022-08-05T21:08:26.590Z,97330.00
2022-08-05T21:10:55.296Z,97337.00
2022-08-05T21:13:48.150Z,97333.00
2022-08-05T21:16:13.079Z,97346.00
2022-08-05T21:18:42.940Z,97336.00
2022-08-05T21:21:12.476Z,97341.00
2022-08-05T21:23:39.689Z,97353.00
2022-08-05T21:26:12.199Z,97350.00
2022-08-05T21:28:40.287Z,97353.00
2022-08-05T21:31:15.335Z,97349.00
2022-08-05T21:33:43.810Z,97346.00
2022-08-05T21:36:19.393Z,97332.00
2022-08-05T21:38:55.090Z,97343.00
2022-08-05T21:41:22.426Z,97342.00
2022-08-05T21:44:01.268Z,97346.00
2022-08-05T21:46:29.057Z,97349.00
2022-08-05T21:48:56.678Z,97349.00
2022-08-05T21:52:16.292Z,97358.00
2022-08-05T21:54:11.615Z,97366.00
2022-08-05T21:56:44.288Z,97366.00
2022-08-05T21:59:22.493Z,97370.00
2022-08-05T22:01:51.315Z,97364.00
2022-08-05T22:04:25.376Z,97367.00
2022-08-05T22:06:52.870Z,97381.00
2022-08-05T22:09:21.106Z,97386.00
2022-08-05T22:11:49.508Z,97388.00
2022-08-05T22:14:33.643Z,97391.00
2022-08-05T22:17:07.102Z,97400.00
2022-08-05T22:20:00.976Z,97395.00
2022-08-05T22:22:26.772Z,97394.00
2022-08-05T22:25:18.109Z,97401.00
2022-08-05T22:28:10.181Z,97395.00
2022-08-05T22:30:44.077Z,97390.00
2022-08-05T22:33:58.514Z,97401.00
2022-08-05T22:36:10.125Z,97396.00
2022-08-05T22:38:37.311Z,97402.00
2022-08-05T22:41:09.574Z,97412.00
2022-08-05T22:43:38.227Z,97420.00
2022-08-05T22:46:12.265Z,97420.00
2022-08-05T22:48:50.871Z,97419.00
2022-08-05T22:51:23.151Z,97416.00
2022-08-05T22:54:05.293Z,97414.00
2022-08-05T22:56:32.521Z,97408.00
2022-08-05T22:59:02.889Z,97409.00
2022-08-05T23:02:04.894Z,97406.00
2022-08-05T23:04:19.100Z,97402.00
2022-08-05T23:06:47.863Z,97396.00
2022-08-05T23:09:27.626Z,97398.00
2022-08-05T23:12:02.694Z,97401.00
2022-08-05T23:14:32.106Z,97408.00
2022-08-05T23:17:24.593Z,97398.00
2022-08-05T23:20:02.230Z,97395.00
2022-08-05T23:22:30.824Z,97399.00
2022-08-05T23:24:58.228Z,97401.00
2022-08-05T23:27:28.959Z,97397.00
2022-08-05T23:30:10.793Z,97404.00
2022-08-05T23:32:38.103Z,97398.00
2022-08-05T23:35:12.453Z,97402.00
2022-08-05T23:37:39.621Z,97408.00
2022-08-05T23:40:07.834Z,97408.00
2022-08-05T23:42:37.765Z,97412.00
2022-08-05T23:45:05.402Z,97415.00
2022-08-05T23:47:47.734Z,97408.00
2022-08-05T23:50:16.187Z,97415.00
2022-08-05T23:52:50.022Z,97418.00
2022-08-05T23:55:19.048Z,97408.00
2022-08-05T23:57:48.832Z,97415.00
